Friday, November 17, 2017, 7:29 PM GMT
Back to Local

CYGK, Kingston, Ont.

Location: , , Canada Lat: 44.217
Local Time: 7:29 PM GMT (19:29 GMT) Lon: -76.6
Time Zone: GMT Elev: 305 ft

Show me the last for .
Show Decoded

2017-11-17 19:00 METAR CYGK 171900Z 29006KT 15SM FEW030 SCT240 02/M11 A3016 RMK SC1CI3 SC TR
                 SLP219 =
2017-11-17 18:00 METAR CYGK 171800Z 28009KT 15SM FEW030 SCT240 01/M12 A3017 RMK SC1CI4 SC TR
                 SLP222 =
2017-11-17 17:00 METAR CYGK 171700Z 34009KT 15SM FEW030 BKN240 M00/M12 A3018 RMK SC1CI6 SC TR
                 SLP227 =
2017-11-17 16:00 METAR CYGK 171600Z 28007KT 270V330 15SM FEW025 BKN240 M02/M12 A3021 RMK SC1CI6
                 SC TR SLP237 =
2017-11-17 15:00 METAR CYGK 171500Z 33010KT 15SM FEW025 FEW240 M03/M11 A3022 RMK SC1CI2 SC TR
                 SLP240 =
2017-11-17 14:00 METAR CYGK 171400Z 32011G17KT 15SM FEW025 FEW240 M04/M11 A3022 RMK SC1CI1 SC TR
                 SLP241 =
2017-11-17 13:00 METAR CYGK 171300Z 33010KT 15SM FEW025 FEW240 M05/M11 A3022 RMK SC1CI1 SLP240 =
2017-11-17 12:00 METAR CYGK 171200Z 33006KT 15SM FEW025 M06/M10 A3019 RMK SC2 SLP230 =
2017-11-17 11:00 METAR CYGK 171100Z 32010G16KT 15SM FEW025 M04/M10 A3017 RMK SC2 SLP222 =
2017-11-17 04:00 METAR CYGK 170400Z 30010G16KT 15SM OVC026 01/M04 A2998 RMK SC8 LAST STFD
                 OBS/NEXT 171100 UTC SLP158 =
2017-11-17 03:00 METAR CYGK 170300Z 31017KT 15SM OVC029 01/M04 A2996 RMK SC8 SLP150 =
2017-11-17 02:00 METAR CYGK 170200Z 30011G21KT 15SM OVC030 02/M03 A2993 RMK SC8 SLP138 =
2017-11-17 01:00 METAR CYGK 170100Z 31014G21KT 15SM BKN029 OVC090 02/M02 A2990 RMK SC7AC1 SLP128
                 =
2017-11-17 00:00 METAR CYGK 170000Z 32013G23KT 15SM BKN021 OVC064 03/M01 A2986 RMK SC6SC2 SLP116
                 =
2017-11-16 23:47 METAR CYGK 162347Z 30012G20KT 15SM BKN024 OVC070 03/M00 A2985 RMK SC5AC3 SLP113
                 =
2017-11-16 23:18 METAR CYGK 162318Z 31013KT 15SM -SHRA FEW020 BKN040 OVC070 04/00 A2983 RMK
                 CU2SC3AC3 SLP106 =
2017-11-16 23:00 METAR CYGK 162300Z 30010G19KT 15SM FEW018 SCT040 BKN070 BKN110 04/01 A2982 RMK
                 SC1SC3AC2AC1 SLP102 =
2017-11-16 22:00 METAR CYGK 162200Z 29013G19KT 15SM SCT017 OVC110 04/01 A2978 RMK SC3AC5 OCNL
                 -SHRA SLP087 =
2017-11-16 21:00 METAR CYGK 162100Z 29015G26KT 15SM -SHRA SCT018 OVC080 04/01 A2973 RMK SC4AC4
                 CVCTV CLD EMB SLP070 =
2017-11-16 20:26 METAR CYGK 162026Z 29014G23KT 15SM -SHRA BKN018 OVC080 06/02 A2969 RMK SC6AC2
                 CVCTV CLD EMBD SLP058 =
2017-11-16 20:00 METAR CYGK 162000Z 27015G24KT 15SM BKN021 OVC100 07/02 A2967 RMK SC7AC1 SLP052 =

Support USWX by starting your Amazon purchase here.